Baltimore/Washington International Thurgood Marshal Airport
KBWI : now visible

Airfield :











YOU CAN JOIN US ON...

 
LOGIN :

Register | Disclaimer

   EN    FR    IT 

 









Legend :    VFR   Marginal VFR   IFR   Intensive IFR   Very Intensive IFR
Visi :
Ceiling :
>= 8 km
>= 3000ft
5 to 8 km
1000 to 3000 ft
1500m to 5 km
500 to 1000 ft
800 to 1500m
200 to 500 ft
< 800m
< 200 ft
Symbols :   Thunderstorms  Fog  Heavy snow  Heavy precipitations  Wind > 20 kt






- Airport Elevation : 146 ft
- IATA code : BWI


KBWI - Baltimore/Washington International Thurgood Marshal

CURRENT METAR :
  • 291601Z 07009KT 1 1/2SM R10/5000VP6000FT +RA BR OVC005 13/12 A2964 RMK AO2 P0006 T01330122

EXPIRED METARs :
  • 291554Z 04007KT 2SM R10/4000VP6000FT +RA BR OVC005 13/12 A2965 RMK AO2 SLP039 P0026 T01330122
  • 291454Z 05008KT 2SM RA BR BKN006 OVC010 13/12 A2970 RMK AO2 SLP058 P0032 60069 T01330122 56030
  • 291433Z 06008KT 2 1/2SM R10/5000VP6000FT RA BR BKN006 OVC011 13/12 A2971 RMK AO2 P0019 T01330122
  • 291418Z 07009KT 1 3/4SM R10/6000VP6000FT +RA BR OVC005 13/12 A2972 RMK AO2 P0015 T01330122
  • 291354Z 07012KT 2SM RA BR OVC006 13/12 A2973 RMK AO2 SLP065 P0020 T01330122
  • 291341Z 08014KT 1 3/4SM R10/5500VP6000FT +RA BR OVC006 13/12 A2973 RMK AO2 P0009 T01330117

TAF KBWI
Valid from the 29 at 15:00 until the 30 at 18:00 UTC


291439Z 2915/3018 06008KT 2SM RA OVC005
FM291800 06011G18KT 1SM RA OVC003
FM300000 03010G18KT 5SM -RA BR OVC003
FM300400 02009KT 5SM -RA BR OVC008
FM301200 36012KT P6SM OVC015
FM301700 34011G21KT P6SM BKN015
KZDC FIR / North America



MET'MAP, your aeronautical weather chart ! - Copyright ORBIFLY December 2007 - Disclaimer

ORBIFLY MET'MAP TEAM :

Programming & Development : Alexandra Zaïnal
Concept & original design : Baudouin d'Aumeries
Assistance for programming : Marc-Olivier Méhu
Technical & hardware support : Manuel Goepfert

Contact : metmap@orbifly.com




SOURCES & CREDITS :

   NOAA       Earth
Advisory